sensor_id;sensor_type;location;lat;lon;timestamp;temperature;humidity
76040;SHT30;64736;50.462;4.850;2022-12-08T00:00:46;4.44;91.13
76040;SHT30;64736;50.462;4.850;2022-12-08T00:03:12;4.45;90.61
76040;SHT30;64736;50.462;4.850;2022-12-08T00:05:46;4.44;90.70
76040;SHT30;64736;50.462;4.850;2022-12-08T00:08:31;4.42;90.89
76040;SHT30;64736;50.462;4.850;2022-12-08T00:11:16;4.48;90.43
76040;SHT30;64736;50.462;4.850;2022-12-08T00:13:42;4.54;90.54
76040;SHT30;64736;50.462;4.850;2022-12-08T00:16:08;4.55;90.00
76040;SHT30;64736;50.462;4.850;2022-12-08T00:18:34;4.56;89.70
76040;SHT30;64736;50.462;4.850;2022-12-08T00:21:00;4.52;89.78
76040;SHT30;64736;50.462;4.850;2022-12-08T00:23:26;4.52;90.02
76040;SHT30;64736;50.462;4.850;2022-12-08T00:25:52;4.48;89.70
76040;SHT30;64736;50.462;4.850;2022-12-08T00:28:17;4.46;90.04
76040;SHT30;64736;50.462;4.850;2022-12-08T00:30:44;4.46;89.87
76040;SHT30;64736;50.462;4.850;2022-12-08T00:33:10;4.44;90.49
76040;SHT30;64736;50.462;4.850;2022-12-08T00:35:36;4.45;89.66
76040;SHT30;64736;50.462;4.850;2022-12-08T00:38:02;4.46;90.00
76040;SHT30;64736;50.462;4.850;2022-12-08T00:40:28;4.46;89.52
76040;SHT30;64736;50.462;4.850;2022-12-08T00:42:53;4.48;89.80
76040;SHT30;64736;50.462;4.850;2022-12-08T00:45:19;4.48;89.89
76040;SHT30;64736;50.462;4.850;2022-12-08T00:47:45;4.46;89.46
76040;SHT30;64736;50.462;4.850;2022-12-08T00:50:10;4.40;89.69
76040;SHT30;64736;50.462;4.850;2022-12-08T00:52:36;4.31;89.43
76040;SHT30;64736;50.462;4.850;2022-12-08T00:55:03;4.30;89.60
76040;SHT30;64736;50.462;4.850;2022-12-08T00:57:29;4.35;89.65
76040;SHT30;64736;50.462;4.850;2022-12-08T00:59:55;4.34;89.43
76040;SHT30;64736;50.462;4.850;2022-12-08T01:02:22;4.30;89.53
76040;SHT30;64736;50.462;4.850;2022-12-08T01:04:47;4.27;89.42
76040;SHT30;64736;50.462;4.850;2022-12-08T01:07:13;4.22;89.43
76040;SHT30;64736;50.462;4.850;2022-12-08T01:09:39;4.17;89.82
76040;SHT30;64736;50.462;4.850;2022-12-08T01:12:05;4.22;89.34
76040;SHT30;64736;50.462;4.850;2022-12-08T01:14:31;4.18;89.59
76040;SHT30;64736;50.462;4.850;2022-12-08T01:16:57;4.25;89.46
76040;SHT30;64736;50.462;4.850;2022-12-08T01:19:23;4.17;89.31
76040;SHT30;64736;50.462;4.850;2022-12-08T01:21:48;4.17;89.65
76040;SHT30;64736;50.462;4.850;2022-12-08T01:24:17;4.17;89.57
76040;SHT30;64736;50.462;4.850;2022-12-08T01:26:44;4.18;89.30
76040;SHT30;64736;50.462;4.850;2022-12-08T01:29:11;4.17;89.35
76040;SHT30;64736;50.462;4.850;2022-12-08T01:31:36;4.17;89.35
76040;SHT30;64736;50.462;4.850;2022-12-08T01:34:03;4.10;89.52
76040;SHT30;64736;50.462;4.850;2022-12-08T01:36:31;4.11;89.28
76040;SHT30;64736;50.462;4.850;2022-12-08T01:38:59;4.08;89.62
76040;SHT30;64736;50.462;4.850;2022-12-08T01:41:27;4.07;89.63
76040;SHT30;64736;50.462;4.850;2022-12-08T01:44:01;4.07;89.67
76040;SHT30;64736;50.462;4.850;2022-12-08T01:46:29;4.11;89.58
76040;SHT30;64736;50.462;4.850;2022-12-08T01:49:41;4.08;89.68
76040;SHT30;64736;50.462;4.850;2022-12-08T01:52:02;4.07;89.49
76040;SHT30;64736;50.462;4.850;2022-12-08T01:54:34;4.08;89.27
76040;SHT30;64736;50.462;4.850;2022-12-08T01:57:10;4.07;89.40
76040;SHT30;64736;50.462;4.850;2022-12-08T01:59:40;4.07;89.47
76040;SHT30;64736;50.462;4.850;2022-12-08T02:02:08;4.03;89.72
76040;SHT30;64736;50.462;4.850;2022-12-08T02:04:34;4.03;89.62
76040;SHT30;64736;50.462;4.850;2022-12-08T02:07:01;4.03;89.62
76040;SHT30;64736;50.462;4.850;2022-12-08T02:09:27;4.03;89.66
76040;SHT30;64736;50.462;4.850;2022-12-08T02:11:54;4.06;89.94
76040;SHT30;64736;50.462;4.850;2022-12-08T02:14:21;3.97;89.60
76040;SHT30;64736;50.462;4.850;2022-12-08T02:17:31;3.97;89.66
76040;SHT30;64736;50.462;4.850;2022-12-08T02:22:59;4.03;89.83
76040;SHT30;64736;50.462;4.850;2022-12-08T02:31:04;4.07;89.28
76040;SHT30;64736;50.462;4.850;2022-12-08T02:34:08;4.00;89.69
76040;SHT30;64736;50.462;4.850;2022-12-08T02:42:00;3.96;89.58
76040;SHT30;64736;50.462;4.850;2022-12-08T02:46:59;3.97;89.83
76040;SHT30;64736;50.462;4.850;2022-12-08T02:49:32;4.03;89.84
76040;SHT30;64736;50.462;4.850;2022-12-08T02:54:49;3.97;89.65
76040;SHT30;64736;50.462;4.850;2022-12-08T03:10:29;4.00;89.51
76040;SHT30;64736;50.462;4.850;2022-12-08T03:13:08;3.98;89.68
76040;SHT30;64736;50.462;4.850;2022-12-08T03:15:37;3.96;89.37
76040;SHT30;64736;50.462;4.850;2022-12-08T03:18:06;4.01;89.53
76040;SHT30;64736;50.462;4.850;2022-12-08T03:20:33;4.03;89.74
76040;SHT30;64736;50.462;4.850;2022-12-08T03:23:01;3.96;89.70
76040;SHT30;64736;50.462;4.850;2022-12-08T03:25:32;3.89;89.76
76040;SHT30;64736;50.462;4.850;2022-12-08T03:28:01;3.91;89.89
76040;SHT30;64736;50.462;4.850;2022-12-08T03:30:28;3.94;89.79
76040;SHT30;64736;50.462;4.850;2022-12-08T03:35:31;3.87;89.77
76040;SHT30;64736;50.462;4.850;2022-12-08T03:38:16;3.90;90.04
76040;SHT30;64736;50.462;4.850;2022-12-08T03:40:42;3.91;90.09
76040;SHT30;64736;50.462;4.850;2022-12-08T03:43:09;3.93;89.92
76040;SHT30;64736;50.462;4.850;2022-12-08T03:45:35;3.83;89.90
76040;SHT30;64736;50.462;4.850;2022-12-08T03:48:01;3.85;90.01
76040;SHT30;64736;50.462;4.850;2022-12-08T03:50:27;3.87;89.72
76040;SHT30;64736;50.462;4.850;2022-12-08T03:52:53;3.80;90.13
76040;SHT30;64736;50.462;4.850;2022-12-08T03:55:18;3.82;90.28
76040;SHT30;64736;50.462;4.850;2022-12-08T03:57:45;3.83;90.25
76040;SHT30;64736;50.462;4.850;2022-12-08T04:00:14;3.83;89.85
76040;SHT30;64736;50.462;4.850;2022-12-08T04:02:40;3.83;89.98
76040;SHT30;64736;50.462;4.850;2022-12-08T04:05:06;3.83;89.95
76040;SHT30;64736;50.462;4.850;2022-12-08T04:07:32;3.82;90.12
76040;SHT30;64736;50.462;4.850;2022-12-08T04:09:57;3.82;89.90
76040;SHT30;64736;50.462;4.850;2022-12-08T04:12:23;3.82;89.82
76040;SHT30;64736;50.462;4.850;2022-12-08T04:14:49;3.83;90.05
76040;SHT30;64736;50.462;4.850;2022-12-08T04:17:14;3.83;89.82
76040;SHT30;64736;50.462;4.850;2022-12-08T04:19:40;3.85;89.88
76040;SHT30;64736;50.462;4.850;2022-12-08T04:22:06;3.86;89.83
76040;SHT30;64736;50.462;4.850;2022-12-08T04:24:32;3.83;89.83
76040;SHT30;64736;50.462;4.850;2022-12-08T04:26:58;3.86;89.77
76040;SHT30;64736;50.462;4.850;2022-12-08T04:29:23;3.90;89.79
76040;SHT30;64736;50.462;4.850;2022-12-08T04:31:49;3.93;89.25
76040;SHT30;64736;50.462;4.850;2022-12-08T04:34:15;3.90;89.42
76040;SHT30;64736;50.462;4.850;2022-12-08T04:36:40;3.94;89.43
76040;SHT30;64736;50.462;4.850;2022-12-08T04:39:06;3.91;89.30
76040;SHT30;64736;50.462;4.850;2022-12-08T04:41:32;3.86;89.53
76040;SHT30;64736;50.462;4.850;2022-12-08T04:43:58;3.86;89.43
76040;SHT30;64736;50.462;4.850;2022-12-08T04:46:23;3.87;88.95
76040;SHT30;64736;50.462;4.850;2022-12-08T04:48:49;3.89;89.52
76040;SHT30;64736;50.462;4.850;2022-12-08T04:51:17;3.87;89.42
76040;SHT30;64736;50.462;4.850;2022-12-08T04:53:44;3.87;89.25
76040;SHT30;64736;50.462;4.850;2022-12-08T04:56:14;3.85;89.28
76040;SHT30;64736;50.462;4.850;2022-12-08T04:58:40;3.83;89.31
76040;SHT30;64736;50.462;4.850;2022-12-08T05:01:06;3.83;89.42
76040;SHT30;64736;50.462;4.850;2022-12-08T05:03:32;3.75;89.28
76040;SHT30;64736;50.462;4.850;2022-12-08T05:05:58;3.73;89.80
76040;SHT30;64736;50.462;4.850;2022-12-08T05:08:24;3.76;90.00
76040;SHT30;64736;50.462;4.850;2022-12-08T05:10:50;3.76;89.58
76040;SHT30;64736;50.462;4.850;2022-12-08T05:13:16;3.75;89.46
76040;SHT30;64736;50.462;4.850;2022-12-08T05:15:42;3.75;89.35
76040;SHT30;64736;50.462;4.850;2022-12-08T05:18:08;3.79;89.60
76040;SHT30;64736;50.462;4.850;2022-12-08T05:20:34;3.80;88.89
76040;SHT30;64736;50.462;4.850;2022-12-08T05:22:59;3.86;89.01
76040;SHT30;64736;50.462;4.850;2022-12-08T05:25:25;3.82;89.07
76040;SHT30;64736;50.462;4.850;2022-12-08T05:27:51;3.77;88.91
76040;SHT30;64736;50.462;4.850;2022-12-08T05:30:17;3.75;88.98
76040;SHT30;64736;50.462;4.850;2022-12-08T05:32:42;3.76;88.92
76040;SHT30;64736;50.462;4.850;2022-12-08T05:35:08;3.70;88.56
76040;SHT30;64736;50.462;4.850;2022-12-08T05:37:34;3.69;88.83
76040;SHT30;64736;50.462;4.850;2022-12-08T05:40:00;3.69;88.70
76040;SHT30;64736;50.462;4.850;2022-12-08T05:42:26;3.76;88.63
76040;SHT30;64736;50.462;4.850;2022-12-08T05:44:52;3.70;88.44
76040;SHT30;64736;50.462;4.850;2022-12-08T05:47:18;3.67;89.00
76040;SHT30;64736;50.462;4.850;2022-12-08T05:49:44;3.76;88.50
76040;SHT30;64736;50.462;4.850;2022-12-08T05:52:09;3.72;88.30
76040;SHT30;64736;50.462;4.850;2022-12-08T05:54:35;3.66;88.61
76040;SHT30;64736;50.462;4.850;2022-12-08T05:57:01;3.67;88.54
76040;SHT30;64736;50.462;4.850;2022-12-08T05:59:26;3.65;88.63
76040;SHT30;64736;50.462;4.850;2022-12-08T06:01:52;3.62;88.56
76040;SHT30;64736;50.462;4.850;2022-12-08T06:04:18;3.63;89.02
76040;SHT30;64736;50.462;4.850;2022-12-08T06:06:44;3.67;88.85
76040;SHT30;64736;50.462;4.850;2022-12-08T06:09:10;3.65;89.00
76040;SHT30;64736;50.462;4.850;2022-12-08T06:11:36;3.63;88.90
76040;SHT30;64736;50.462;4.850;2022-12-08T06:14:02;3.58;88.62
76040;SHT30;64736;50.462;4.850;2022-12-08T06:16:28;3.63;88.87
76040;SHT30;64736;50.462;4.850;2022-12-08T06:18:54;3.62;89.10
76040;SHT30;64736;50.462;4.850;2022-12-08T06:21:20;3.63;89.07
76040;SHT30;64736;50.462;4.850;2022-12-08T06:23:50;3.66;88.96
76040;SHT30;64736;50.462;4.850;2022-12-08T06:26:17;3.59;88.96
76040;SHT30;64736;50.462;4.850;2022-12-08T06:28:43;3.62;88.83
76040;SHT30;64736;50.462;4.850;2022-12-08T06:31:21;3.65;89.04
76040;SHT30;64736;50.462;4.850;2022-12-08T06:33:48;3.67;88.98
76040;SHT30;64736;50.462;4.850;2022-12-08T06:36:15;3.65;88.71
76040;SHT30;64736;50.462;4.850;2022-12-08T06:38:42;3.60;89.31
76040;SHT30;64736;50.462;4.850;2022-12-08T06:41:08;3.67;88.79
76040;SHT30;64736;50.462;4.850;2022-12-08T06:43:33;3.63;89.20
76040;SHT30;64736;50.462;4.850;2022-12-08T06:46:05;3.66;89.09
76040;SHT30;64736;50.462;4.850;2022-12-08T06:48:31;3.69;89.09
76040;SHT30;64736;50.462;4.850;2022-12-08T06:51:05;3.75;89.19
76040;SHT30;64736;50.462;4.850;2022-12-08T06:53:30;3.77;88.90
76040;SHT30;64736;50.462;4.850;2022-12-08T06:55:56;3.75;88.98
76040;SHT30;64736;50.462;4.850;2022-12-08T06:58:22;3.73;89.12
76040;SHT30;64736;50.462;4.850;2022-12-08T07:00:48;3.69;88.92
76040;SHT30;64736;50.462;4.850;2022-12-08T07:03:14;3.69;88.80
76040;SHT30;64736;50.462;4.850;2022-12-08T07:05:40;3.70;88.63
76040;SHT30;64736;50.462;4.850;2022-12-08T07:08:07;3.72;88.82
76040;SHT30;64736;50.462;4.850;2022-12-08T07:10:33;3.73;88.84
76040;SHT30;64736;50.462;4.850;2022-12-08T07:12:59;3.69;88.67
76040;SHT30;64736;50.462;4.850;2022-12-08T07:15:25;3.69;88.93
76040;SHT30;64736;50.462;4.850;2022-12-08T07:17:50;3.65;88.85
76040;SHT30;64736;50.462;4.850;2022-12-08T07:20:16;3.62;88.80
76040;SHT30;64736;50.462;4.850;2022-12-08T07:22:51;3.58;88.37
76040;SHT30;64736;50.462;4.850;2022-12-08T07:25:17;3.55;88.31
76040;SHT30;64736;50.462;4.850;2022-12-08T07:27:44;3.51;88.42
76040;SHT30;64736;50.462;4.850;2022-12-08T07:30:10;3.49;88.98
76040;SHT30;64736;50.462;4.850;2022-12-08T07:32:37;3.46;88.38
76040;SHT30;64736;50.462;4.850;2022-12-08T07:35:03;3.49;88.76
76040;SHT30;64736;50.462;4.850;2022-12-08T07:37:29;3.45;88.81
76040;SHT30;64736;50.462;4.850;2022-12-08T07:39:55;3.42;88.51
76040;SHT30;64736;50.462;4.850;2022-12-08T07:42:20;3.46;88.58
76040;SHT30;64736;50.462;4.850;2022-12-08T07:44:46;3.34;89.10
76040;SHT30;64736;50.462;4.850;2022-12-08T07:47:12;3.40;88.32
76040;SHT30;64736;50.462;4.850;2022-12-08T07:49:38;3.39;88.57
76040;SHT30;64736;50.462;4.850;2022-12-08T07:52:03;3.42;88.32
76040;SHT30;64736;50.462;4.850;2022-12-08T07:54:29;3.45;88.14
76040;SHT30;64736;50.462;4.850;2022-12-08T07:56:58;3.45;88.42
76040;SHT30;64736;50.462;4.850;2022-12-08T07:59:23;3.46;87.88
76040;SHT30;64736;50.462;4.850;2022-12-08T08:01:49;3.45;88.40
76040;SHT30;64736;50.462;4.850;2022-12-08T08:04:15;3.45;87.88
76040;SHT30;64736;50.462;4.850;2022-12-08T08:06:41;3.43;88.25
76040;SHT30;64736;50.462;4.850;2022-12-08T08:09:07;3.46;87.76
76040;SHT30;64736;50.462;4.850;2022-12-08T08:11:34;3.48;87.88
76040;SHT30;64736;50.462;4.850;2022-12-08T08:14:00;3.40;87.70
76040;SHT30;64736;50.462;4.850;2022-12-08T08:16:26;3.51;87.80
76040;SHT30;64736;50.462;4.850;2022-12-08T08:18:52;3.56;87.61
76040;SHT30;64736;50.462;4.850;2022-12-08T08:21:19;3.51;87.06
76040;SHT30;64736;50.462;4.850;2022-12-08T08:23:45;3.51;87.23
76040;SHT30;64736;50.462;4.850;2022-12-08T08:26:10;3.48;87.45
76040;SHT30;64736;50.462;4.850;2022-12-08T08:28:36;3.46;87.33
76040;SHT30;64736;50.462;4.850;2022-12-08T08:31:03;3.49;87.48
76040;SHT30;64736;50.462;4.850;2022-12-08T08:33:29;3.48;86.98
76040;SHT30;64736;50.462;4.850;2022-12-08T08:35:55;3.52;87.13
76040;SHT30;64736;50.462;4.850;2022-12-08T08:38:20;3.49;86.74
76040;SHT30;64736;50.462;4.850;2022-12-08T08:40:47;3.56;86.80
76040;SHT30;64736;50.462;4.850;2022-12-08T08:43:12;3.56;86.40
76040;SHT30;64736;50.462;4.850;2022-12-08T08:45:57;3.58;86.41
76040;SHT30;64736;50.462;4.850;2022-12-08T08:48:24;3.54;86.22
76040;SHT30;64736;50.462;4.850;2022-12-08T08:50:50;3.58;86.23
76040;SHT30;64736;50.462;4.850;2022-12-08T08:53:15;3.65;86.31
76040;SHT30;64736;50.462;4.850;2022-12-08T08:55:41;3.69;86.02
76040;SHT30;64736;50.462;4.850;2022-12-08T08:58:07;3.76;85.47
76040;SHT30;64736;50.462;4.850;2022-12-08T09:00:33;3.86;85.36
76040;SHT30;64736;50.462;4.850;2022-12-08T09:02:58;3.79;86.08
76040;SHT30;64736;50.462;4.850;2022-12-08T09:05:24;3.98;84.84
76040;SHT30;64736;50.462;4.850;2022-12-08T09:07:50;4.07;84.96
76040;SHT30;64736;50.462;4.850;2022-12-08T09:10:16;4.17;84.53
76040;SHT30;64736;50.462;4.850;2022-12-08T09:12:41;4.06;83.93
76040;SHT30;64736;50.462;4.850;2022-12-08T09:15:07;4.11;84.24
76040;SHT30;64736;50.462;4.850;2022-12-08T09:17:33;4.14;84.05
76040;SHT30;64736;50.462;4.850;2022-12-08T09:19:59;4.24;83.99
76040;SHT30;64736;50.462;4.850;2022-12-08T09:22:25;4.38;83.71
76040;SHT30;64736;50.462;4.850;2022-12-08T09:24:51;4.33;83.72
76040;SHT30;64736;50.462;4.850;2022-12-08T09:27:17;4.41;83.53
76040;SHT30;64736;50.462;4.850;2022-12-08T09:29:43;4.15;83.85
76040;SHT30;64736;50.462;4.850;2022-12-08T09:32:09;4.28;82.53
76040;SHT30;64736;50.462;4.850;2022-12-08T09:34:35;4.34;82.78
76040;SHT30;64736;50.462;4.850;2022-12-08T09:37:01;4.42;82.77
76040;SHT30;64736;50.462;4.850;2022-12-08T09:39:27;4.40;83.33
76040;SHT30;64736;50.462;4.850;2022-12-08T09:50:10;4.31;82.42
76040;SHT30;64736;50.462;4.850;2022-12-08T09:52:57;4.40;82.60
76040;SHT30;64736;50.462;4.850;2022-12-08T10:01:22;4.72;81.27
76040;SHT30;64736;50.462;4.850;2022-12-08T10:03:51;4.71;80.76
76040;SHT30;64736;50.462;4.850;2022-12-08T10:12:02;4.92;80.75
76040;SHT30;64736;50.462;4.850;2022-12-08T10:17:41;4.96;80.18
76040;SHT30;64736;50.462;4.850;2022-12-08T10:22:38;5.00;79.62
76040;SHT30;64736;50.462;4.850;2022-12-08T10:25:18;5.04;78.91
76040;SHT30;64736;50.462;4.850;2022-12-08T10:27:50;5.07;78.78
76040;SHT30;64736;50.462;4.850;2022-12-08T10:30:18;5.13;78.69
76040;SHT30;64736;50.462;4.850;2022-12-08T10:32:47;5.24;78.39
76040;SHT30;64736;50.462;4.850;2022-12-08T10:35:15;5.58;77.61
76040;SHT30;64736;50.462;4.850;2022-12-08T10:37:56;5.72;76.54
76040;SHT30;64736;50.462;4.850;2022-12-08T10:40:27;5.56;77.02
76040;SHT30;64736;50.462;4.850;2022-12-08T10:42:57;5.31;77.64
76040;SHT30;64736;50.462;4.850;2022-12-08T10:45:25;5.42;77.97
76040;SHT30;64736;50.462;4.850;2022-12-08T10:48:13;5.10;78.03
76040;SHT30;64736;50.462;4.850;2022-12-08T10:50:58;5.30;78.03
76040;SHT30;64736;50.462;4.850;2022-12-08T10:53:29;5.17;77.97
76040;SHT30;64736;50.462;4.850;2022-12-08T10:58:38;4.80;80.10
76040;SHT30;64736;50.462;4.850;2022-12-08T11:01:27;5.47;76.68
76040;SHT30;64736;50.462;4.850;2022-12-08T11:04:04;5.47;77.27
76040;SHT30;64736;50.462;4.850;2022-12-08T11:06:38;5.34;77.36
76040;SHT30;64736;50.462;4.850;2022-12-08T11:09:24;5.28;77.63
76040;SHT30;64736;50.462;4.850;2022-12-08T11:12:05;5.21;76.99
76040;SHT30;64736;50.462;4.850;2022-12-08T11:19:38;5.09;77.88
76040;SHT30;64736;50.462;4.850;2022-12-08T11:22:29;5.10;77.57
76040;SHT30;64736;50.462;4.850;2022-12-08T11:25:17;5.00;78.36
76040;SHT30;64736;50.462;4.850;2022-12-08T11:27:48;4.83;77.98
76040;SHT30;64736;50.462;4.850;2022-12-08T11:30:22;4.79;78.15
76040;SHT30;64736;50.462;4.850;2022-12-08T11:35:39;4.93;77.28
76040;SHT30;64736;50.462;4.850;2022-12-08T11:38:38;4.96;77.83
76040;SHT30;64736;50.462;4.850;2022-12-08T11:46:01;4.93;77.43
76040;SHT30;64736;50.462;4.850;2022-12-08T11:56:40;5.04;77.32
76040;SHT30;64736;50.462;4.850;2022-12-08T11:59:36;5.09;76.85
76040;SHT30;64736;50.462;4.850;2022-12-08T12:02:04;5.09;76.65
76040;SHT30;64736;50.462;4.850;2022-12-08T12:04:40;5.09;76.81
76040;SHT30;64736;50.462;4.850;2022-12-08T12:10:19;5.31;76.17
76040;SHT30;64736;50.462;4.850;2022-12-08T12:18:51;5.48;74.60
76040;SHT30;64736;50.462;4.850;2022-12-08T12:21:30;5.44;74.16
76040;SHT30;64736;50.462;4.850;2022-12-08T12:24:06;5.55;74.06
76040;SHT30;64736;50.462;4.850;2022-12-08T12:26:36;5.56;73.75
76040;SHT30;64736;50.462;4.850;2022-12-08T12:29:06;5.55;73.99
76040;SHT30;64736;50.462;4.850;2022-12-08T12:31:35;5.62;72.81
76040;SHT30;64736;50.462;4.850;2022-12-08T12:36:51;5.73;73.29
76040;SHT30;64736;50.462;4.850;2022-12-08T12:39:21;5.85;72.92
76040;SHT30;64736;50.462;4.850;2022-12-08T12:41:56;5.85;72.49
76040;SHT30;64736;50.462;4.850;2022-12-08T12:47:03;5.83;72.68
76040;SHT30;64736;50.462;4.850;2022-12-08T12:55:18;5.50;73.08
76040;SHT30;64736;50.462;4.850;2022-12-08T12:57:40;5.55;73.77
76040;SHT30;64736;50.462;4.850;2022-12-08T13:00:18;5.54;73.95
76040;SHT30;64736;50.462;4.850;2022-12-08T13:02:45;5.38;74.28
76040;SHT30;64736;50.462;4.850;2022-12-08T13:23:42;5.10;74.11
76040;SHT30;64736;50.462;4.850;2022-12-08T13:26:12;4.97;75.62
76040;SHT30;64736;50.462;4.850;2022-12-08T13:40:02;6.52;68.61
76040;SHT30;64736;50.462;4.850;2022-12-08T13:42:32;7.68;65.60
76040;SHT30;64736;50.462;4.850;2022-12-08T13:45:17;8.26;62.91
76040;SHT30;64736;50.462;4.850;2022-12-08T13:51:17;7.33;64.57
76040;SHT30;64736;50.462;4.850;2022-12-08T13:54:03;6.74;66.56
76040;SHT30;64736;50.462;4.850;2022-12-08T13:56:38;6.48;67.75
76040;SHT30;64736;50.462;4.850;2022-12-08T13:59:30;6.36;67.28
76040;SHT30;64736;50.462;4.850;2022-12-08T14:01:58;6.11;68.65
76040;SHT30;64736;50.462;4.850;2022-12-08T14:04:26;5.76;69.01
76040;SHT30;64736;50.462;4.850;2022-12-08T14:06:57;5.55;69.83
76040;SHT30;64736;50.462;4.850;2022-12-08T14:09:28;5.44;70.55
76040;SHT30;64736;50.462;4.850;2022-12-08T14:12:00;5.44;69.98
76040;SHT30;64736;50.462;4.850;2022-12-08T14:14:49;5.45;70.59
76040;SHT30;64736;50.462;4.850;2022-12-08T14:17:18;5.44;70.78
76040;SHT30;64736;50.462;4.850;2022-12-08T14:24:59;5.40;71.11
76040;SHT30;64736;50.462;4.850;2022-12-08T14:27:26;5.26;70.82
76040;SHT30;64736;50.462;4.850;2022-12-08T14:30:00;5.27;71.30
76040;SHT30;64736;50.462;4.850;2022-12-08T14:32:35;4.82;71.15
76040;SHT30;64736;50.462;4.850;2022-12-08T14:37:36;4.99;71.29
76040;SHT30;64736;50.462;4.850;2022-12-08T14:45:35;4.79;70.62
76040;SHT30;64736;50.462;4.850;2022-12-08T14:48:39;4.66;69.81
76040;SHT30;64736;50.462;4.850;2022-12-08T14:51:20;4.62;70.49
76040;SHT30;64736;50.462;4.850;2022-12-08T14:56:25;4.49;70.30
76040;SHT30;64736;50.462;4.850;2022-12-08T14:59:14;4.40;70.91
76040;SHT30;64736;50.462;4.850;2022-12-08T15:01:43;4.35;71.88
76040;SHT30;64736;50.462;4.850;2022-12-08T15:06:58;4.21;72.62
76040;SHT30;64736;50.462;4.850;2022-12-08T15:09:39;4.21;72.41
76040;SHT30;64736;50.462;4.850;2022-12-08T15:22:50;4.04;71.36
76040;SHT30;64736;50.462;4.850;2022-12-08T15:25:16;3.98;71.20
76040;SHT30;64736;50.462;4.850;2022-12-08T15:27:42;3.96;71.32
76040;SHT30;64736;50.462;4.850;2022-12-08T15:30:12;3.87;72.24
76040;SHT30;64736;50.462;4.850;2022-12-08T15:32:38;3.80;72.71
76040;SHT30;64736;50.462;4.850;2022-12-08T15:35:04;3.73;73.53
76040;SHT30;64736;50.462;4.850;2022-12-08T15:37:30;3.62;74.08
76040;SHT30;64736;50.462;4.850;2022-12-08T15:39:56;3.54;74.07
76040;SHT30;64736;50.462;4.850;2022-12-08T15:42:21;3.49;74.45
76040;SHT30;64736;50.462;4.850;2022-12-08T15:44:47;3.40;74.86
76040;SHT30;64736;50.462;4.850;2022-12-08T15:47:18;3.39;75.34
76040;SHT30;64736;50.462;4.850;2022-12-08T15:49:47;3.34;74.52
76040;SHT30;64736;50.462;4.850;2022-12-08T15:52:18;3.34;74.25
76040;SHT30;64736;50.462;4.850;2022-12-08T15:54:45;3.28;74.54
76040;SHT30;64736;50.462;4.850;2022-12-08T15:59:43;3.17;75.16
76040;SHT30;64736;50.462;4.850;2022-12-08T16:02:12;3.15;75.43
76040;SHT30;64736;50.462;4.850;2022-12-08T16:04:38;3.14;76.01
76040;SHT30;64736;50.462;4.850;2022-12-08T16:07:05;3.15;76.69
76040;SHT30;64736;50.462;4.850;2022-12-08T16:09:39;3.14;76.55
76040;SHT30;64736;50.462;4.850;2022-12-08T16:12:09;3.21;77.61
76040;SHT30;64736;50.462;4.850;2022-12-08T16:14:57;3.27;77.33
76040;SHT30;64736;50.462;4.850;2022-12-08T16:17:23;3.31;77.33
76040;SHT30;64736;50.462;4.850;2022-12-08T16:19:49;3.29;77.63
76040;SHT30;64736;50.462;4.850;2022-12-08T16:22:21;3.32;77.78
76040;SHT30;64736;50.462;4.850;2022-12-08T16:24:49;3.32;77.54
76040;SHT30;64736;50.462;4.850;2022-12-08T16:27:26;3.38;77.66
76040;SHT30;64736;50.462;4.850;2022-12-08T16:29:55;3.40;77.26
76040;SHT30;64736;50.462;4.850;2022-12-08T16:32:21;3.45;77.62
76040;SHT30;64736;50.462;4.850;2022-12-08T16:34:47;3.54;77.36
76040;SHT30;64736;50.462;4.850;2022-12-08T16:37:22;3.62;78.03
76040;SHT30;64736;50.462;4.850;2022-12-08T16:39:50;3.59;77.74
76040;SHT30;64736;50.462;4.850;2022-12-08T16:42:18;3.65;77.95
76040;SHT30;64736;50.462;4.850;2022-12-08T16:47:33;3.62;78.61
76040;SHT30;64736;50.462;4.850;2022-12-08T16:49:59;3.62;77.92
76040;SHT30;64736;50.462;4.850;2022-12-08T16:52:25;3.62;78.18
76040;SHT30;64736;50.462;4.850;2022-12-08T16:54:50;3.56;78.59
76040;SHT30;64736;50.462;4.850;2022-12-08T16:57:16;3.66;78.98
76040;SHT30;64736;50.462;4.850;2022-12-08T16:59:42;3.54;79.21
76040;SHT30;64736;50.462;4.850;2022-12-08T17:02:09;3.67;79.44
76040;SHT30;64736;50.462;4.850;2022-12-08T17:04:34;3.62;79.29
76040;SHT30;64736;50.462;4.850;2022-12-08T17:07:00;3.65;79.60
76040;SHT30;64736;50.462;4.850;2022-12-08T17:09:26;3.56;79.76
76040;SHT30;64736;50.462;4.850;2022-12-08T17:11:52;3.52;80.23
76040;SHT30;64736;50.462;4.850;2022-12-08T17:14:18;3.59;80.74
76040;SHT30;64736;50.462;4.850;2022-12-08T17:16:44;3.49;80.54
76040;SHT30;64736;50.462;4.850;2022-12-08T17:19:14;3.55;80.73
76040;SHT30;64736;50.462;4.850;2022-12-08T17:21:40;3.21;81.85
76040;SHT30;64736;50.462;4.850;2022-12-08T17:24:05;3.60;81.22
76040;SHT30;64736;50.462;4.850;2022-12-08T17:26:31;3.67;81.06
76040;SHT30;64736;50.462;4.850;2022-12-08T17:28:57;3.59;81.10
76040;SHT30;64736;50.462;4.850;2022-12-08T17:31:23;3.56;81.38
76040;SHT30;64736;50.462;4.850;2022-12-08T17:33:49;3.52;81.37
76040;SHT30;64736;50.462;4.850;2022-12-08T17:36:15;3.54;81.34
76040;SHT30;64736;50.462;4.850;2022-12-08T17:38:42;3.48;81.44
76040;SHT30;64736;50.462;4.850;2022-12-08T17:41:09;3.48;81.52
76040;SHT30;64736;50.462;4.850;2022-12-08T17:43:36;3.45;81.57
76040;SHT30;64736;50.462;4.850;2022-12-08T17:46:02;3.36;81.78
76040;SHT30;64736;50.462;4.850;2022-12-08T17:48:28;3.40;81.75
76040;SHT30;64736;50.462;4.850;2022-12-08T17:50:54;3.36;81.60
76040;SHT30;64736;50.462;4.850;2022-12-08T17:53:20;3.35;82.10
76040;SHT30;64736;50.462;4.850;2022-12-08T17:55:53;3.40;81.95
76040;SHT30;64736;50.462;4.850;2022-12-08T17:58:21;3.31;81.67
76040;SHT30;64736;50.462;4.850;2022-12-08T18:00:47;3.25;81.77
76040;SHT30;64736;50.462;4.850;2022-12-08T18:03:14;3.27;82.29
76040;SHT30;64736;50.462;4.850;2022-12-08T18:05:40;3.29;82.46
76040;SHT30;64736;50.462;4.850;2022-12-08T18:08:05;3.24;82.29
76040;SHT30;64736;50.462;4.850;2022-12-08T18:10:31;3.24;82.75
76040;SHT30;64736;50.462;4.850;2022-12-08T18:12:56;3.18;82.59
76040;SHT30;64736;50.462;4.850;2022-12-08T18:15:23;3.10;82.76
76040;SHT30;64736;50.462;4.850;2022-12-08T18:17:49;2.98;83.22
76040;SHT30;64736;50.462;4.850;2022-12-08T18:20:16;2.96;83.80
76040;SHT30;64736;50.462;4.850;2022-12-08T18:22:42;2.90;83.94
76040;SHT30;64736;50.462;4.850;2022-12-08T18:25:09;2.90;84.22
76040;SHT30;64736;50.462;4.850;2022-12-08T18:27:35;2.86;84.15
76040;SHT30;64736;50.462;4.850;2022-12-08T18:30:05;2.87;84.39
76040;SHT30;64736;50.462;4.850;2022-12-08T18:32:31;2.79;84.49
76040;SHT30;64736;50.462;4.850;2022-12-08T18:34:57;2.75;84.64
76040;SHT30;64736;50.462;4.850;2022-12-08T18:37:23;2.70;84.66
76040;SHT30;64736;50.462;4.850;2022-12-08T18:39:48;2.67;84.78
76040;SHT30;64736;50.462;4.850;2022-12-08T18:42:15;2.57;85.04
76040;SHT30;64736;50.462;4.850;2022-12-08T18:44:58;2.53;85.28
76040;SHT30;64736;50.462;4.850;2022-12-08T18:47:30;2.48;85.53